Time;durP1;ratioP1;P1;durP2;ratioP2;P2;SDS_P1;SDS_P2;PMS_P1;PMS_P2;Temp;Humidity;BMP_temperature;BMP_pressure;BME280_temperature;BME280_humidity;BME280_pressure;Samples;Min_cycle;Max_cycle;Signal;HPM_P1;HPM_P2
2022/04/25 04:11:18;;;;;;;2.97;2.55;;;;;;;10.05;88.16;99323.56;5557515;32;191317;-87
2022/04/25 04:14:21;;;;;;;5.15;2.50;;;;;;;10.02;87.64;99318.50;5544216;32;33767;-88
2022/04/25 04:17:24;;;;;;;5.85;2.40;;;;;;;10.06;87.85;99321.78;5542434;32;33464;-88
2022/04/25 04:20:27;;;;;;;3.37;2.10;;;;;;;10.10;87.24;99323.25;5544378;32;33944;-88
2022/04/25 04:23:30;;;;;;;3.62;2.22;;;;;;;10.11;87.96;99320.53;5543611;32;33267;-88
2022/04/25 04:26:33;;;;;;;3.60;1.95;;;;;;;10.17;87.17;99331.69;5545647;32;34662;-87
2022/04/25 04:29:35;;;;;;;5.00;2.15;;;;;;;10.20;86.35;99329.69;5544380;32;34889;-88
2022/04/25 04:32:40;;;;;;;5.70;2.37;;;;;;;10.22;85.97;99329.59;5582759;26;33668;-88
2022/04/25 04:39:05;;;;;;;4.40;1.90;;;;;;;10.26;86.39;99328.41;5549883;32;32242;-86
2022/04/25 04:42:07;;;;;;;6.72;2.30;;;;;;;10.29;86.07;99327.38;5544561;32;34441;-86
2022/04/25 04:45:11;;;;;;;4.40;2.28;;;;;;;10.38;84.97;99330.25;5544408;32;34176;-85
2022/04/25 04:48:15;;;;;;;5.32;2.47;;;;;;;10.60;84.20;99326.25;5552961;32;33629;-86
2022/04/25 04:51:18;;;;;;;6.62;2.45;;;;;;;10.74;83.57;99330.63;5558252;32;35084;-85
2022/04/25 04:54:20;;;;;;;2.87;2.05;;;;;;;11.07;83.61;99327.56;5559310;32;34197;-86
2022/04/25 04:57:23;;;;;;;3.03;1.98;;;;;;;11.75;80.22;99341.44;5559051;32;33669;-86
2022/04/25 05:00:27;;;;;;;3.60;1.90;;;;;;;12.27;77.66;99335.97;5547937;32;34770;-86
2022/04/25 05:03:30;;;;;;;5.50;2.28;;;;;;;12.43;75.83;99332.19;5544556;32;32428;-86
2022/04/25 05:06:33;;;;;;;3.87;1.95;;;;;;;12.94;73.07;99337.19;5542939;32;32701;-86
2022/04/25 05:09:36;;;;;;;5.00;2.00;;;;;;;13.21;73.71;99337.87;5544152;32;34247;-86
2022/04/25 05:12:56;;;;;;;3.40;1.90;;;;;;;13.14;73.02;99350.81;5542986;32;32419;-86
2022/04/25 05:15:59;;;;;;;6.10;1.90;;;;;;;13.35;72.31;99350.12;5543435;32;33538;-86
2022/04/25 05:19:02;;;;;;;2.25;1.90;;;;;;;13.18;75.40;99356.75;5543372;32;33902;-86
2022/04/25 05:22:05;;;;;;;4.72;1.80;;;;;;;12.96;72.40;99355.72;5532664;32;34041;-86
2022/04/25 05:25:08;;;;;;;6.30;2.00;;;;;;;12.65;75.47;99358.91;5530344;32;33819;-85
2022/04/25 05:28:11;;;;;;;2.60;1.83;;;;;;;12.92;73.77;99371.09;5529338;32;33279;-86
2022/04/25 05:31:13;;;;;;;3.03;1.90;;;;;;;12.88;73.29;99371.44;5529407;32;35372;-86
2022/04/25 05:34:16;;;;;;;2.92;1.73;;;;;;;13.00;72.07;99370.50;5525720;32;34488;-85
2022/04/25 05:37:19;;;;;;;2.40;1.98;;;;;;;13.03;73.00;99374.75;5522936;32;34362;-86
2022/04/25 05:40:23;;;;;;;2.58;2.00;;;;;;;12.97;72.20;99383.22;5513721;32;35691;-86
2022/04/25 05:43:26;;;;;;;4.95;1.95;;;;;;;13.36;70.97;99377.63;5525721;32;32750;-87
2022/04/25 05:46:29;;;;;;;5.20;1.92;;;;;;;14.19;67.60;99380.91;5531841;32;32734;-86
2022/04/25 05:53:12;;;;;;;2.58;1.58;;;;;;;16.80;58.24;99379.16;5436504;32;34087;-86
2022/04/25 05:56:15;;;;;;;2.15;1.20;;;;;;;18.13;52.95;99378.44;5511696;32;32623;-87
2022/04/25 05:59:18;;;;;;;2.70;1.27;;;;;;;18.59;50.92;99374.88;5520925;32;33102;-88
2022/04/25 06:02:21;;;;;;;2.37;1.10;;;;;;;18.20;51.35;99383.19;5522958;32;33776;-87
2022/04/25 06:05:24;;;;;;;1.55;0.85;;;;;;;17.92;51.81;99381.34;5529430;32;32281;-87
2022/04/25 06:08:27;;;;;;;2.40;1.20;;;;;;;18.64;49.40;99379.78;5530577;32;33576;-86
2022/04/25 06:11:31;;;;;;;1.45;0.90;;;;;;;19.47;48.05;99383.16;5522126;32;34460;-87
2022/04/25 06:14:34;;;;;;;2.85;1.40;;;;;;;20.60;44.48;99375.84;5510971;32;32844;-88
2022/04/25 06:17:37;;;;;;;1.67;0.93;;;;;;;21.95;41.29;99373.69;5513757;32;32085;-88
2022/04/25 06:20:40;;;;;;;2.28;1.10;;;;;;;23.48;37.86;99367.72;5522522;32;33722;-87
2022/04/25 06:23:43;;;;;;;4.55;1.20;;;;;;;23.94;36.92;99363.97;5515647;32;33455;-88
2022/04/25 06:26:47;;;;;;;5.28;1.50;;;;;;;23.73;37.18;99366.63;5581218;26;34588;-88
2022/04/25 06:29:52;;;;;;;2.60;1.08;;;;;;;23.32;37.07;99363.31;5513392;32;32498;-89
2022/04/25 06:32:55;;;;;;;2.87;1.20;;;;;;;22.06;38.68;99354.41;5592704;26;33668;-89
2022/04/25 06:47:28;;;;;;;4.00;1.75;;;;;;;21.53;41.25;99356.78;5275004;26;20111;-89
2022/04/25 06:50:31;;;;;;;3.58;1.33;;;;;;;22.39;40.75;99357.94;5566283;32;33967;-89
2022/04/25 07:01:10;;;;;;;1.98;1.55;;;;;;;23.00;37.76;99362.56;4974576;26;20727;-88
2022/04/25 07:04:16;;;;;;;3.97;1.58;;;;;;;22.00;39.76;99362.38;5525173;32;33810;-89
2022/04/25 07:10:56;;;;;;;3.60;1.30;;;;;;;23.64;37.10;99377.50;5558024;31;20080;-89
2022/04/25 07:14:03;;;;;;;2.20;1.23;;;;;;;23.36;37.14;99383.56;5550887;32;33586;-87
2022/04/25 07:17:05;;;;;;;2.47;1.40;;;;;;;22.99;37.52;99386.06;5536523;32;32758;-88
2022/04/25 07:20:09;;;;;;;3.08;1.45;;;;;;;21.97;39.06;99390.56;5550250;32;33755;-87
2022/04/25 07:29:54;;;;;;;2.65;1.73;;;;;;;21.97;40.29;99381.63;5558323;32;34771;-90
2022/04/25 07:32:57;;;;;;;2.92;1.23;;;;;;;21.12;42.04;99392.75;5551207;32;34699;-88
2022/04/25 07:35:59;;;;;;;2.67;1.33;;;;;;;22.15;41.52;99386.75;5536252;32;33984;-88
2022/04/25 07:39:03;;;;;;;4.12;1.40;;;;;;;21.60;40.93;99387.44;5541032;32;33737;-88
2022/04/25 07:42:06;;;;;;;6.15;2.10;;;;;;;21.72;40.59;99387.94;5558538;32;34404;-87
2022/04/25 07:45:09;;;;;;;1.45;1.20;;;;;;;22.13;39.88;99386.09;5558393;32;35141;-87
2022/04/25 07:48:12;;;;;;;1.50;1.20;;;;;;;22.50;38.83;99392.66;5561581;32;34741;-87
2022/04/25 07:51:15;;;;;;;2.05;1.58;;;;;;;22.04;39.42;99393.41;5545510;32;33412;-87
2022/04/25 07:54:19;;;;;;;1.92;1.83;;;;;;;22.27;39.24;99393.44;5537693;32;34020;-87
2022/04/25 07:57:22;;;;;;;2.37;1.73;;;;;;;22.45;39.85;99387.78;5549572;32;34369;-87
2022/04/25 08:00:25;;;;;;;2.60;1.58;;;;;;;20.97;43.26;99408.78;5549804;32;34302;-88
2022/04/25 08:03:28;;;;;;;1.85;1.70;;;;;;;21.16;42.45;99407.56;5542160;32;34407;-88
2022/04/25 08:06:31;;;;;;;2.47;1.67;;;;;;;21.75;41.72;99400.25;5524323;32;33293;-88
2022/04/25 08:09:34;;;;;;;2.05;1.48;;;;;;;22.77;38.47;99398.56;5533718;32;34189;-88
2022/04/25 08:19:20;;;;;;;1.62;1.52;;;;;;;23.16;37.77;99396.75;5515356;32;33789;-87
2022/04/25 08:22:26;;;;;;;4.40;2.12;;;;;;;23.23;37.88;99408.50;5502492;32;32647;-87
2022/04/25 08:25:30;;;;;;;3.42;1.83;;;;;;;23.31;36.39;99404.06;5517002;32;33966;-88
2022/04/25 08:28:35;;;;;;;1.40;1.27;;;;;;;22.26;38.30;99407.13;5498120;32;32632;-88
2022/04/25 08:31:58;;;;;;;3.40;1.48;;;;;;;19.73;44.26;99412.72;5512864;32;34134;-88
2022/04/25 08:35:02;;;;;;;1.58;1.40;;;;;;;21.91;39.70;99410.16;5517884;32;34600;-88
2022/04/25 08:38:05;;;;;;;2.22;1.50;;;;;;;20.98;41.88;99405.87;5511052;32;32964;-88
2022/04/25 08:41:10;;;;;;;3.08;1.60;;;;;;;21.92;39.69;99417.22;5514543;32;33901;-87
2022/04/25 08:44:16;;;;;;;4.10;1.73;;;;;;;21.46;39.95;99407.88;5512661;32;34444;-87
2022/04/25 08:47:22;;;;;;;2.55;1.58;;;;;;;22.18;38.94;99405.34;5505760;32;32079;-87
2022/04/25 08:50:26;;;;;;;2.35;1.27;;;;;;;22.82;38.17;99411.56;5513108;32;32504;-87
2022/04/25 08:53:31;;;;;;;1.60;1.08;;;;;;;22.83;37.10;99402.44;5510161;32;33289;-88
2022/04/25 08:56:36;;;;;;;2.10;1.30;;;;;;;21.65;39.07;99413.91;5507998;32;33473;-91
2022/04/25 08:59:39;;;;;;;3.58;1.15;;;;;;;20.38;40.68;99418.59;5505517;32;32750;-90
2022/04/25 09:02:44;;;;;;;0.88;0.88;;;;;;;20.07;41.93;99419.16;5499528;32;32264;-89
2022/04/25 09:05:50;;;;;;;2.95;0.95;;;;;;;19.98;42.39;99426.34;5514967;26;33205;-88
2022/04/25 09:08:53;;;;;;;1.27;1.10;;;;;;;19.28;43.55;99425.38;5532166;32;32038;-88
2022/04/25 09:12:12;;;;;;;1.33;0.93;;;;;;;19.05;44.68;99435.78;5532279;32;34189;-88
2022/04/25 09:15:21;;;;;;;3.08;1.20;;;;;;;19.18;45.90;99430.84;5518756;32;32567;-88
2022/04/25 09:18:29;;;;;;;1.95;1.10;;;;;;;21.07;41.58;99428.28;5532557;32;34459;-87
2022/04/25 09:21:40;;;;;;;5.07;1.20;;;;;;;22.31;39.72;99427.22;5533091;32;34535;-87
2022/04/25 09:24:44;;;;;;;2.67;1.20;;;;;;;23.08;37.98;99432.00;5520859;32;33818;-87
2022/04/25 09:27:48;;;;;;;1.08;0.98;;;;;;;23.68;36.96;99427.56;5519644;32;32472;-87
2022/04/25 09:31:00;;;;;;;0.75;0.70;;;;;;;23.74;36.52;99434.09;5520689;32;33505;-87
2022/04/25 09:34:15;;;;;;;2.67;1.00;;;;;;;22.60;35.92;99431.13;5538542;32;34066;-87
2022/04/25 09:37:18;;;;;;;3.92;1.10;;;;;;;21.99;39.10;99442.53;5537725;32;33289;-87
2022/04/25 09:40:23;;;;;;;1.33;1.05;;;;;;;22.64;37.80;99441.56;5540551;32;33349;-87
2022/04/25 09:43:31;;;;;;;1.27;1.17;;;;;;;22.12;37.66;99444.66;5551536;32;34162;-86
2022/04/25 09:46:47;;;;;;;3.42;0.70;;;;;;;20.51;40.50;99452.28;5561123;32;33887;-87
2022/04/25 09:50:09;;;;;;;1.37;0.70;;;;;;;20.02;41.64;99459.97;5544119;32;33236;-87
2022/04/25 09:53:51;;;;;;;1.67;0.73;;;;;;;19.56;41.98;99453.97;5517589;32;32593;-87
2022/04/25 09:56:54;;;;;;;2.62;0.75;;;;;;;19.25;42.14;99463.31;5518037;32;33008;-88
2022/04/25 09:59:57;;;;;;;2.55;0.70;;;;;;;19.27;42.37;99474.78;5519550;32;32759;-89
2022/04/25 10:03:16;;;;;;;4.72;1.05;;;;;;;18.14;46.46;99465.13;5521662;32;32528;-88
2022/04/25 10:06:21;;;;;;;3.10;1.02;;;;;;;18.93;44.99;99465.53;5540357;32;33599;-88
2022/04/25 10:09:31;;;;;;;0.70;0.62;;;;;;;19.97;42.74;99467.72;5526772;32;33228;-88
2022/04/25 10:12:37;;;;;;;2.40;0.70;;;;;;;20.55;39.24;99464.41;5574557;26;33518;-88
2022/04/25 10:15:44;;;;;;;1.67;0.60;;;;;;;20.55;39.17;99469.78;5622397;26;35128;-88
2022/04/25 10:18:48;;;;;;;0.60;0.40;;;;;;;19.82;40.43;99475.50;5583859;26;34731;-88
2022/04/25 10:21:53;;;;;;;0.50;0.50;;;;;;;18.75;42.49;99473.56;5561384;31;33646;-87
2022/04/25 10:24:56;;;;;;;2.28;0.60;;;;;;;19.69;42.12;99475.06;5554306;32;33175;-87
2022/04/25 10:28:01;;;;;;;0.82;0.40;;;;;;;20.51;39.82;99474.66;5566447;32;33539;-88
2022/04/25 10:31:08;;;;;;;2.22;1.35;;;;;;;20.86;40.08;99482.69;5545991;32;33064;-86
2022/04/25 10:34:14;;;;;;;1.65;0.62;;;;;;;21.06;39.79;99475.16;5542112;32;32372;-87
2022/04/25 10:44:18;;;;;;;0.90;0.70;;;;;;;24.20;34.69;99484.53;5547077;32;33766;-91
2022/04/25 10:47:22;;;;;;;1.25;0.93;;;;;;;25.73;32.38;99494.75;5535707;32;34133;-87
2022/04/25 10:50:26;;;;;;;0.60;0.60;;;;;;;23.67;33.23;99481.88;5566737;32;34898;-89
2022/04/25 10:53:56;;;;;;;0.70;0.70;;;;;;;21.04;39.30;99500.59;5564352;32;34126;-89
2022/04/25 10:57:05;;;;;;;;;;;;;;;19.33;42.52;99498.34;5540694;32;32349;-88
2022/04/25 11:00:36;;;;;;;0.95;0.70;;;;;;;19.05;41.97;99506.50;5568386;26;34345;-87
2022/04/25 11:04:03;;;;;;;0.70;0.50;;;;;;;20.18;40.76;99496.09;5563171;32;34672;-87
2022/04/25 11:07:24;;;;;;;5.65;0.88;;;;;;;20.08;42.01;99500.72;5554998;32;32812;-87
2022/04/25 11:10:46;;;;;;;3.22;0.88;;;;;;;19.95;41.51;99512.75;5542788;32;34035;-87
2022/04/25 11:14:01;;;;;;;0.85;0.85;;;;;;;19.97;42.55;99518.84;5536940;32;33675;-90
2022/04/25 11:17:11;;;;;;;3.80;0.70;;;;;;;19.25;43.27;99526.00;5540562;32;33804;-90
2022/04/25 11:20:57;;;;;;;0.68;0.62;;;;;;;18.94;44.40;99530.84;5567649;32;34650;-89
2022/04/25 11:24:02;;;;;;;1.23;0.93;;;;;;;19.99;42.92;99524.91;5535878;32;32261;-88
2022/04/25 11:27:11;;;;;;;1.15;1.05;;;;;;;21.04;39.52;99535.63;5562959;32;34869;-88
2022/04/25 11:30:16;;;;;;;2.30;0.70;;;;;;;20.21;40.70;99536.13;5569090;32;33702;-87
2022/04/25 11:33:19;;;;;;;1.23;0.52;;;;;;;19.16;42.74;99539.53;5550822;32;33351;-88
2022/04/25 11:36:24;;;;;;;0.70;0.70;;;;;;;19.42;42.54;99534.22;5557060;32;34259;-88
2022/04/25 11:42:48;;;;;;;1.30;0.60;;;;;;;19.08;45.12;99559.09;5538461;32;34108;-88
2022/04/25 11:45:51;;;;;;;1.37;0.95;;;;;;;18.25;45.90;99566.94;5555234;32;33734;-89
2022/04/25 11:49:12;;;;;;;1.20;0.60;;;;;;;17.86;46.78;99567.03;5603838;26;33037;-89
2022/04/25 11:52:17;;;;;;;0.90;0.70;;;;;;;18.43;46.54;99564.38;5551474;32;33613;-89
2022/04/25 11:55:34;;;;;;;1.05;0.80;;;;;;;17.76;48.90;99580.47;5582821;26;33583;-88
2022/04/25 11:58:37;;;;;;;0.68;0.68;;;;;;;17.64;48.92;99585.97;5539298;32;35114;-89
2022/04/25 12:01:47;;;;;;;1.35;0.62;;;;;;;17.16;48.96;99584.97;5569005;26;32407;-87
2022/04/25 12:04:50;;;;;;;3.40;0.70;;;;;;;16.86;51.16;99583.16;5536228;32;34282;-91
2022/04/25 12:18:18;;;;;;;3.00;0.90;;;;;;;18.56;47.58;99590.88;5535718;32;34264;-89
2022/04/25 12:21:25;;;;;;;0.80;0.77;;;;;;;19.06;46.56;99588.81;5538077;32;33471;-88
2022/04/25 12:24:28;;;;;;;2.33;0.80;;;;;;;18.87;46.82;99581.69;5536973;32;32835;-88
2022/04/25 12:27:36;;;;;;;0.90;0.85;;;;;;;18.30;47.55;99591.53;5539970;32;33896;-88
2022/04/25 12:31:00;;;;;;;0.98;0.90;;;;;;;17.79;49.04;99585.53;5534583;32;33517;-90
2022/04/25 12:34:07;;;;;;;1.95;0.80;;;;;;;17.32;48.42;99583.53;5540532;32;33702;-89
2022/04/25 12:37:11;;;;;;;1.33;0.70;;;;;;;17.22;48.79;99597.81;5540124;32;34613;-88
2022/04/25 12:40:13;;;;;;;5.53;0.98;;;;;;;17.49;49.06;99601.62;5534528;32;33714;-87
2022/04/25 12:43:36;;;;;;;0.80;0.80;;;;;;;17.38;50.52;99599.94;5537649;32;34090;-88
2022/04/25 12:46:44;;;;;;;0.80;0.80;;;;;;;17.85;48.80;99594.84;5550275;32;32585;-91
2022/04/25 12:49:47;;;;;;;0.80;0.80;;;;;;;17.52;47.13;99587.91;5554764;32;33289;-91
2022/04/25 12:52:57;;;;;;;0.88;0.80;;;;;;;17.94;47.11;99585.94;5550008;32;32102;-87
2022/04/25 12:56:03;;;;;;;1.48;0.88;;;;;;;18.24;45.44;99585.88;5550131;32;32583;-87
2022/04/25 12:59:06;;;;;;;2.33;0.60;;;;;;;17.96;45.22;99583.97;5551718;32;33858;-87
2022/04/25 13:02:14;;;;;;;0.85;0.80;;;;;;;18.22;45.49;99586.06;5559674;32;32545;-88
2022/04/25 13:05:17;;;;;;;0.95;0.82;;;;;;;18.35;46.45;99590.25;5562630;32;32787;-87
2022/04/25 13:08:20;;;;;;;3.37;0.88;;;;;;;18.04;44.62;99600.19;5548337;32;35401;-87
2022/04/25 13:11:23;;;;;;;2.36;0.90;;;;;;;18.30;43.18;99596.91;5540253;32;32590;-86
2022/04/25 13:14:26;;;;;;;1.80;1.00;;;;;;;18.44;43.43;99586.66;5548321;32;32682;-87
2022/04/25 13:17:28;;;;;;;2.58;1.05;;;;;;;18.47;42.97;99591.75;5545047;32;35371;-87
2022/04/25 13:20:33;;;;;;;8.95;1.05;;;;;;;18.50;42.18;99588.78;5536852;32;33473;-86
2022/04/25 13:23:36;;;;;;;1.00;0.73;;;;;;;18.92;42.09;99589.28;5540203;32;34155;-86
2022/04/25 13:26:39;;;;;;;2.10;0.80;;;;;;;19.01;41.92;99590.22;5540769;32;34305;-86
2022/04/25 13:29:42;;;;;;;0.60;0.60;;;;;;;18.89;42.24;99582.37;5538550;32;32519;-86
2022/04/25 13:32:46;;;;;;;1.87;0.90;;;;;;;19.13;41.16;99581.81;5553934;32;33743;-86
2022/04/25 13:35:49;;;;;;;1.30;0.90;;;;;;;19.02;41.47;99582.03;5547490;32;32571;-86
2022/04/25 13:38:52;;;;;;;2.25;0.77;;;;;;;19.29;40.95;99582.13;5531211;32;33281;-87
2022/04/25 13:41:54;;;;;;;1.12;0.80;;;;;;;19.08;40.46;99589.53;5548782;32;32576;-86
2022/04/25 13:44:57;;;;;;;2.40;0.80;;;;;;;19.26;39.85;99594.91;5539032;32;32661;-87
2022/04/25 13:48:01;;;;;;;2.80;0.75;;;;;;;18.41;42.42;99578.94;5546725;32;34754;-86
2022/04/25 13:51:04;;;;;;;2.85;0.80;;;;;;;18.42;42.71;99604.78;5532484;32;34452;-85
2022/04/25 13:54:07;;;;;;;1.80;0.60;;;;;;;18.57;43.00;99597.09;5530487;32;34664;-86
2022/04/25 13:57:13;;;;;;;2.40;0.80;;;;;;;19.23;41.50;99588.97;5533136;32;34548;-86
2022/04/25 14:00:19;;;;;;;1.85;0.75;;;;;;;18.88;42.58;99607.56;5543833;32;35149;-86
2022/04/25 14:03:22;;;;;;;1.45;0.80;;;;;;;18.69;42.53;99603.97;5553461;32;33804;-86
2022/04/25 14:06:25;;;;;;;6.05;1.40;;;;;;;18.97;42.31;99606.63;5552407;32;33132;-85
2022/04/25 14:09:28;;;;;;;3.78;0.82;;;;;;;18.41;42.08;99611.16;5544159;32;34915;-86
2022/04/25 14:12:31;;;;;;;1.05;0.90;;;;;;;18.45;42.58;99599.97;5529873;32;32496;-86
2022/04/25 14:15:36;;;;;;;1.87;0.95;;;;;;;18.29;41.89;99597.03;5535560;32;33871;-85
2022/04/25 14:18:39;;;;;;;1.23;0.70;;;;;;;18.14;42.38;99610.06;5530358;32;34153;-86
2022/04/25 14:21:42;;;;;;;2.72;1.27;;;;;;;17.70;44.06;99608.66;5528766;32;32822;-86
2022/04/25 14:24:45;;;;;;;2.00;0.95;;;;;;;17.88;44.62;99618.69;5539460;32;33420;-87
2022/04/25 14:27:48;;;;;;;4.20;1.17;;;;;;;18.08;44.01;99610.66;5535523;32;33962;-86
2022/04/25 14:30:51;;;;;;;1.95;1.20;;;;;;;18.32;43.23;99618.22;5530550;32;35226;-89
2022/04/25 14:33:55;;;;;;;5.45;1.10;;;;;;;17.68;44.22;99623.22;5530695;32;32765;-87
2022/04/25 14:36:57;;;;;;;2.22;1.10;;;;;;;17.32;45.22;99621.06;5531598;32;34094;-88
2022/04/25 14:40:00;;;;;;;1.20;1.00;;;;;;;17.64;44.41;99626.19;5543028;32;33620;-89
2022/04/25 14:43:04;;;;;;;1.60;1.17;;;;;;;17.50;44.40;99622.09;5536264;32;32459;-88
2022/04/25 14:46:12;;;;;;;1.92;1.10;;;;;;;17.52;43.93;99633.50;5540672;32;35415;-92
2022/04/25 14:49:16;;;;;;;1.52;1.10;;;;;;;17.72;43.68;99630.84;5546925;32;34408;-91
2022/04/25 14:55:41;;;;;;;1.10;1.10;;;;;;;17.73;44.31;99632.53;5536610;32;32701;-87
2022/04/25 14:58:44;;;;;;;1.50;1.33;;;;;;;17.94;43.01;99626.16;5553266;32;33221;-88
2022/04/25 15:01:48;;;;;;;1.77;1.20;;;;;;;17.19;44.68;99624.00;5544439;32;34159;-87
2022/04/25 15:04:51;;;;;;;1.55;1.45;;;;;;;16.88;46.40;99621.34;5532693;32;32875;-87
2022/04/25 15:07:54;;;;;;;1.70;1.12;;;;;;;16.80;46.31;99627.41;5530310;32;32703;-90
2022/04/25 15:10:56;;;;;;;1.42;1.33;;;;;;;16.90;46.61;99617.56;5530870;32;34042;-88
2022/04/25 15:13:59;;;;;;;2.53;1.58;;;;;;;16.77;47.49;99623.16;5531307;32;33489;-90
2022/04/25 15:17:02;;;;;;;1.30;1.20;;;;;;;16.73;47.25;99635.13;5531534;32;33912;-89
2022/04/25 15:20:07;;;;;;;1.10;1.10;;;;;;;16.80;47.41;99633.59;5530551;32;34465;-88
2022/04/25 15:23:11;;;;;;;2.95;1.55;;;;;;;17.01;47.79;99631.84;5530987;32;32826;-88
2022/04/25 15:26:13;;;;;;;1.48;1.37;;;;;;;16.91;49.73;99645.19;5532118;32;33694;-88
2022/04/25 15:29:16;;;;;;;2.03;1.48;;;;;;;17.05;47.41;99639.47;5532246;32;34927;-88
2022/04/25 15:32:19;;;;;;;1.42;1.33;;;;;;;17.52;46.55;99646.09;5531263;32;32805;-89
